Jarrettown, Pennsylvania
Current Conditions -  °F | °C
As of 3:15 AM on Tuesday 21 Oct 2014 (Local Time) from KLOM Reporting Station
Broken Clouds Broken Clouds  
Wind Chill: 52°   Ceiling: 7500
Heat Index: 52°   Visibility: 10mi
Dew Point: 46°   Wind: 0mph
Humidity: 82%   Direction: NA
Pressure: 29.9"   Gusts: NA
Location:  40.1441°N, 75.1618°W
Report Text: KLOM 210715Z AUTO 00000KT 10SM SCT065 BKN075 BKN090 11/08 A2990 RMK AO1
Loading
Personal Weather Stations






























Interactive Weather Map
Tropical Storm Tracking
New forecast layout! Learn more

10-Day Weather Forecast

Advertisements
Track Severe Weather on mobile